Portada
METAR-TAF:

METAR-TAF

Aeropuertos :

Parsabad, Irán

latitud: 39-36-13N, longitud: 47-52-53E, altitud: 77 m

Observación

El informe se hizo hace 43 minutos, a las 23:00 UTC
Viento 4 kt del oeste-suroeste
Temperatura 3°C
Humedad 100%
Presión 1018 hPa
Visibilidad 10 km o más
sin nubes por debajo de 1500 m y sin presencia de cumulonimbus.

METAR: OITP 142300Z 25004KT CAVOK 03/03 Q1018

Hora: 03:13 (23:43 UTC)


TAF: falta

Observaciones y pronósticos meteorológicos de más de 4000 aeropuertos (mensajes METAR y TAF).

Los puntos amarillos y rojos representan las estaciones disponibles.

Ponga el ratón en el punto deseado para ver el nombre de la estación.

Haga clic para ver las observaciones y los pronósticos meteorológicos.

Para cambiar el mapa : haga clic en los botones verdes con una cruz de color negro para hacer un zoom, en el botón verde con un guión para alejar o en las flechas verdes para mapas adyacentes.


METAR-TAF: